< < Back
Terminal Aerodrome Forecast


Current Version              Previous Versions:   1  2  3  4  5  6  7  8  9  

Terminal Aerodrome Forecast

220
FTUS42 KFFC 291100
TAFAHN
TAF
KAHN 291137Z 2912/3012 00000KT P6SM FEW250
     FM291600 17004KT P6SM FEW060 FEW250
     FM300000 00000KT P6SM SCT070 SCT250=



Latest METAR

235
SAUS70 KWBC 291554
MTRAHN
METAR KAHN 291551Z 00000KT 10SM CLR 33/14 A3010 RMK AO2 SLP183
T03280139


USA.gov is the U.S. government's official web portal to all federal, state and local government web resources and services.